Mammoth Yosemite Airport

Airport
ICAO code: 
KMMH
Summary
ICAO Region: 
NAM
Territory: 
Location: 
Mammoth Lakes, California,
Coordinates: 
Aerial View: 
37° 37' 27.005" N, 118° 50' 18.989" W
Airport CFIT: 
Altimeter Temperature Error Correction
Airport RE: 
Hot and High Operations
Airport WX: 
Mountain Waves
Metar
Observation
KMMH 040657Z AUTO 31005KT 10SM CLR M01/M08 A3029 RMK AO2
Station
Mammoth / June Lakes
Date/Time
2021-12-04 06:57:00
Wind direction
310°
Wind speed
05 kts
Lowest cloud amount
n/a
Temperature
-1°C
Dew point
-8°C
Humidity
58%
Weather condition
n/a

Description

Mammoth Yosemite Airport is a town-owned public-use airport located 11 km east of the central business district of Mammoth Lakes, a town in Mono County, California.

Climatology

Mammoth Lakes has a dry-summer, humid continental climate (Köppen climate classification Dsb), with long, very snowy winters and warm, dry summers. Snowfall is particularly heavy from December thru March, and averages 206 inches (5.23 m) per season.

Runways

Designator Length Width Surface Rops
9/27 2134 30 ASP Yes/Yes
Airport map: 
Aerial View: 

SKYbrary Partners:

Safety knowledge contributed by: